Schedule Details

Flight Number: CPX218
Departure: Chicago/Rockford International Airport (KRFD) at 0030 UTC
Arrival: March Air Reserve Base (KRIV) at 0415 UTC
Route: PLL IOW J192 PWE GCK J96 GUP J134 TRM ARKOE1


Current Weather Information
KRFD 180633Z 35011KT 1 1/2SM -SN BR OVC030 M07/M09 A3004 RMK AO2 P0001 T10671089
KRIV 180629Z AUTO 27010KT 10SM SCT021 06/06 A2995 RMK AO2 RAB05E14 SLP144

Route Map